Picher, OK (74360)

10:26 AM CDT on July 27, 2016 (GMT -0500)
Sparky Electric | | Change Station

Elev 797 ft 36.90 °N, 94.86 °W | Updated 9 seconds ago

Mostly Cloudy
Mostly Cloudy
79.2 °F
Feels Like 83 °F
N
0.0
Wind Variable Wind from WNW
Gusts 0.0 mph

Today
High -- | Low -- °F
--% Chance of Precip.
Yesterday
High -- | Low -- °F
Precip. -- in
Pressure 29.98 in
Visibility 8.0 miles
Clouds Mostly Cloudy 900 ft
Heat Index 83 °F
Dew Point 74 °F
Humidity 84%
Rainfall 0.01 in
Snow Depth Not available.
6:20 AM 8:30 PM
Last Quarter, 42% visible
METAR KJLN 271453Z 07003KT 8SM BKN009 26/24 A3001 RMK AO2 CIG 007V012 SLP150 T02610239 50004
Pressure 29.98 in
Visibility 8.0 miles
Clouds Mostly Cloudy 900 ft
Heat Index 83 °F
Dew Point 74 °F
Humidity 84%
Rainfall 0.01 in
Snow Depth Not available.
6:20 AM 8:30 PM
Last Quarter, 42% visible
METAR KJLN 271453Z 07003KT 8SM BKN009 26/24 A3001 RMK AO2 CIG 007V012 SLP150 T02610239 50004

10-Day Weather Forecast

Almanac

Astronomy

Jul. 27, 2016 Rise Set
Actual Time
Civil Twilight
Nautical Twilight
Astronomical Twilight
Moon
Length of Visible Light
Length of Day
Tomorrow will be .
, % of the Moon is Illuminated

Today's Extremes

State Highs State Lows

Community

WunderPhotos

Upload Photos

1,927,859 photos uploaded!

WunderBlog® & News

Nearby

Air Quality

  Air Quality AQ Index Pollutant
Not available.

Snow Depth

Station Depth Elevation

Earthquake Activity

City Distance Mag. Time & Date
Minimum magnitude displayed is 2.5.

Coastal Water Temperatures

Place Temperature

Stations

Nearby Weather Stations

Station Location Temp. Windchill Dew Point Humidity Wind Precip. Elev Updated Type
                   

Watches & Warnings

There are currently no watches in effect.